Time;durP1;ratioP1;P1;durP2;ratioP2;P2;SDS_P1;SDS_P2;PMS_P1;PMS_P2;Temp;Humidity;BMP_temperature;BMP_pressure;BME280_temperature;BME280_humidity;BME280_pressure;Samples;Min_cycle;Max_cycle;Signal;HPM_P1;HPM_P2
2023/08/23 00:01:28;;;;;;;5.10;4.70;;;20.10;99.90;;;;;;5053080;28;20074;-80
2023/08/23 00:03:53;;;;;;;5.47;4.97;;;20.00;99.90;;;;;;5052583;28;20032;-80
2023/08/23 00:06:19;;;;;;;4.82;4.40;;;20.00;99.90;;;;;;5051861;28;20032;-80
2023/08/23 00:08:44;;;;;;;5.85;4.40;;;19.90;99.90;;;;;;5052360;28;20033;-80
2023/08/23 00:11:10;;;;;;;4.32;3.92;;;20.80;99.90;;;;;;5052595;28;20426;-80
2023/08/23 00:13:36;;;;;;;5.10;4.03;;;20.00;99.90;;;;;;5052061;28;20477;-80
2023/08/23 00:16:01;;;;;;;4.47;3.95;;;20.00;99.90;;;;;;5052714;28;20082;-80
2023/08/23 00:18:27;;;;;;;6.22;4.97;;;20.00;99.90;;;;;;5052646;28;20503;-80
2023/08/23 00:20:52;;;;;;;7.05;4.55;;;20.00;99.90;;;;;;5051394;28;20025;-81
2023/08/23 00:23:18;;;;;;;8.35;4.72;;;20.00;99.90;;;;;;5052568;28;20029;-81
2023/08/23 00:25:43;;;;;;;5.32;4.68;;;20.10;99.90;;;;;;5051966;28;20032;-80
2023/08/23 00:28:09;;;;;;;5.35;4.25;;;20.00;99.90;;;;;;5051623;28;20463;-80
2023/08/23 00:30:34;;;;;;;5.57;4.20;;;20.10;99.90;;;;;;5052071;28;20029;-80
2023/08/23 00:33:01;;;;;;;6.40;5.28;;;20.30;99.90;;;;;;5051941;28;20044;-80
2023/08/23 00:35:26;;;;;;;5.43;4.50;;;20.30;99.90;;;;;;5051397;28;20094;-82
2023/08/23 00:37:53;;;;;;;5.10;4.63;;;19.90;99.90;;;;;;5051858;28;20128;-82
2023/08/23 00:40:20;;;;;;;4.45;4.15;;;20.30;99.90;;;;;;5052168;28;20107;-82
2023/08/23 00:42:46;;;;;;;4.80;4.40;;;19.90;99.90;;;;;;5050979;28;20385;-82
2023/08/23 00:45:11;;;;;;;5.95;5.40;;;19.90;99.90;;;;;;5052168;28;20074;-82
2023/08/23 00:47:37;;;;;;;8.30;4.82;;;19.90;99.90;;;;;;5051774;28;20025;-82
2023/08/23 00:50:03;;;;;;;5.55;5.00;;;19.80;99.90;;;;;;5051316;28;20503;-82
2023/08/23 00:52:28;;;;;;;6.72;5.78;;;19.90;99.90;;;;;;5051635;28;20020;-82
2023/08/23 00:54:57;;;;;;;6.10;5.43;;;19.80;99.90;;;;;;5051726;28;20043;-82
2023/08/23 00:57:24;;;;;;;6.55;5.68;;;19.80;99.90;;;;;;5051111;28;20021;-82
2023/08/23 00:59:49;;;;;;;6.18;5.68;;;20.00;99.90;;;;;;5051370;28;20072;-82
2023/08/23 01:02:15;;;;;;;5.78;5.28;;;20.20;99.90;;;;;;5051268;28;20057;-82
2023/08/23 01:04:40;;;;;;;9.90;6.43;;;19.80;99.90;;;;;;5051626;28;20056;-82
2023/08/23 01:07:13;;;;;;;8.63;6.57;;;20.00;99.90;;;;;;5051825;28;20354;-82
2023/08/23 01:09:51;;;;;;;7.88;6.88;;;19.80;99.90;;;;;;5050675;28;20029;-82
2023/08/23 01:12:20;;;;;;;7.05;6.47;;;19.70;99.90;;;;;;5051999;28;20032;-82
2023/08/23 01:14:54;;;;;;;8.32;6.63;;;19.70;99.90;;;;;;5051422;28;20039;-82
2023/08/23 01:17:21;;;;;;;8.48;7.18;;;19.70;99.90;;;;;;5051160;28;20408;-82
2023/08/23 01:19:49;;;;;;;8.60;6.53;;;19.70;99.90;;;;;;5055118;28;20033;-82
2023/08/23 01:22:21;;;;;;;6.88;6.28;;;19.70;99.90;;;;;;5056119;28;20051;-81
2023/08/23 01:24:48;;;;;;;9.52;7.93;;;19.70;99.90;;;;;;5054944;28;20051;-81
2023/08/23 01:27:16;;;;;;;10.98;8.15;;;19.60;99.90;;;;;;5055909;28;20526;-82
2023/08/23 01:29:43;;;;;;;8.63;7.68;;;19.90;99.90;;;;;;5055289;28;20025;-82
2023/08/23 01:32:15;;;;;;;8.25;7.53;;;19.70;99.90;;;;;;5054701;28;20033;-82
2023/08/23 01:34:45;;;;;;;12.35;7.38;;;19.70;99.90;;;;;;5054965;28;20052;-81
2023/08/23 01:37:11;;;;;;;9.98;7.40;;;19.60;99.90;;;;;;5055383;28;20036;-81
2023/08/23 01:39:37;;;;;;;10.10;8.23;;;19.50;99.90;;;;;;5054494;28;20025;-81
2023/08/23 01:42:05;;;;;;;8.40;7.13;;;19.60;99.90;;;;;;5055451;28;20049;-82
2023/08/23 01:44:30;;;;;;;8.45;7.65;;;19.60;99.90;;;;;;5054622;28;20076;-81
2023/08/23 01:46:56;;;;;;;9.35;7.95;;;19.60;99.90;;;;;;5055223;28;20029;-81
2023/08/23 01:49:21;;;;;;;10.85;7.32;;;19.40;99.90;;;;;;5055404;28;20024;-81
2023/08/23 01:51:47;;;;;;;8.77;7.05;;;19.70;99.90;;;;;;5055525;28;20431;-81
2023/08/23 01:54:12;;;;;;;8.55;7.30;;;19.70;99.90;;;;;;5055199;28;20052;-81
2023/08/23 01:56:38;;;;;;;9.55;7.97;;;19.80;99.90;;;;;;5055204;28;20406;-81
2023/08/23 01:59:03;;;;;;;8.48;7.68;;;19.90;99.90;;;;;;5054374;28;20110;-81
2023/08/23 02:01:29;;;;;;;8.55;7.72;;;19.80;99.90;;;;;;5054896;28;20029;-81
2023/08/23 02:03:55;;;;;;;7.78;6.40;;;19.60;99.90;;;;;;5054797;28;20445;-81
2023/08/23 02:06:20;;;;;;;6.85;6.25;;;19.60;99.90;;;;;;5054540;28;20036;-81
2023/08/23 02:08:46;;;;;;;8.88;7.35;;;19.50;99.90;;;;;;5054666;28;20500;-82
2023/08/23 02:11:11;;;;;;;10.90;7.30;;;19.60;99.90;;;;;;5054846;28;20459;-81
2023/08/23 02:13:37;;;;;;;9.20;7.32;;;19.60;99.90;;;;;;5053672;28;20036;-81
2023/08/23 02:16:02;;;;;;;10.43;7.93;;;19.50;99.90;;;;;;5054692;28;20039;-81
2023/08/23 02:18:28;;;;;;;7.85;6.97;;;19.50;99.90;;;;;;5054698;28;20357;-81
2023/08/23 02:20:58;;;;;;;7.35;6.57;;;19.50;99.90;;;;;;5053735;28;20032;-82
2023/08/23 02:23:24;;;;;;;8.83;7.30;;;19.60;99.90;;;;;;5054937;28;20028;-81
2023/08/23 02:25:50;;;;;;;8.82;7.10;;;19.50;99.90;;;;;;5054322;28;20033;-81
2023/08/23 02:28:16;;;;;;;9.18;6.57;;;19.50;99.90;;;;;;5053943;28;20041;-82
2023/08/23 02:30:42;;;;;;;9.27;7.57;;;19.50;99.90;;;;;;5053054;28;20067;-82
2023/08/23 02:33:07;;;;;;;7.97;7.28;;;20.40;99.90;;;;;;5054157;28;20450;-81
2023/08/23 02:35:33;;;;;;;7.50;6.80;;;19.50;99.90;;;;;;5053288;28;20029;-82
2023/08/23 02:38:01;;;;;;;7.50;6.80;;;19.50;99.90;;;;;;5054594;28;20054;-81
2023/08/23 02:40:27;;;;;;;11.82;8.15;;;20.50;99.90;;;;;;5054317;28;20033;-81
2023/08/23 02:42:55;;;;;;;8.82;8.02;;;19.50;99.90;;;;;;5053335;28;20032;-81
2023/08/23 02:45:21;;;;;;;8.27;7.55;;;19.40;99.90;;;;;;5054334;28;20061;-81
2023/08/23 02:47:46;;;;;;;9.50;7.72;;;19.40;99.90;;;;;;5052927;28;20479;-81
2023/08/23 02:50:12;;;;;;;9.82;8.82;;;19.40;99.90;;;;;;5054118;28;20032;-81
2023/08/23 02:52:38;;;;;;;7.93;7.13;;;19.90;99.90;;;;;;5053858;28;20104;-81
2023/08/23 02:55:03;;;;;;;8.40;7.47;;;19.40;99.90;;;;;;5053415;28;20411;-81
2023/08/23 02:57:29;;;;;;;9.68;8.30;;;19.40;99.90;;;;;;5053967;28;20231;-81
2023/08/23 02:59:55;;;;;;;8.63;7.68;;;19.40;99.90;;;;;;5053850;28;20751;-82
2023/08/23 03:02:20;;;;;;;10.40;8.55;;;19.40;99.90;;;;;;5053245;28;20028;-81
2023/08/23 03:04:46;;;;;;;9.20;8.32;;;19.40;99.90;;;;;;5053755;28;20025;-81
2023/08/23 03:07:11;;;;;;;8.32;7.53;;;19.40;99.90;;;;;;5053922;28;20461;-80
2023/08/23 03:09:37;;;;;;;9.40;8.38;;;19.50;99.90;;;;;;5052809;28;20024;-82
2023/08/23 03:12:03;;;;;;;7.63;7.00;;;19.90;99.90;;;;;;5053695;28;20143;-79
2023/08/23 03:14:29;;;;;;;10.27;7.88;;;19.40;99.90;;;;;;5053630;28;20048;-80
2023/08/23 03:16:55;;;;;;;14.55;7.88;;;19.40;99.90;;;;;;5053059;28;20072;-80
2023/08/23 03:19:20;;;;;;;9.07;8.05;;;19.90;99.90;;;;;;5053623;28;20064;-81
2023/08/23 03:21:46;;;;;;;13.15;8.00;;;19.60;99.90;;;;;;5053758;28;20025;-82
2023/08/23 03:24:11;;;;;;;8.15;7.00;;;19.40;99.90;;;;;;5053151;28;20036;-81
2023/08/23 03:26:37;;;;;;;6.82;6.25;;;20.20;99.90;;;;;;5053459;28;20379;-82
2023/08/23 03:29:03;;;;;;;10.02;7.65;;;19.40;99.90;;;;;;5053740;28;20021;-82
2023/08/23 03:31:28;;;;;;;7.70;7.10;;;19.40;99.90;;;;;;5052622;28;20036;-81
2023/08/23 03:33:54;;;;;;;7.05;6.18;;;20.10;99.90;;;;;;5053556;28;20017;-81
2023/08/23 03:36:20;;;;;;;8.52;7.63;;;19.40;99.90;;;;;;5066145;28;20067;-81
2023/08/23 03:38:45;;;;;;;8.52;7.60;;;19.40;99.90;;;;;;5055612;28;20028;-81
2023/08/23 03:41:13;;;;;;;8.75;7.30;;;19.60;99.90;;;;;;5053440;28;20025;-81
2023/08/23 03:43:38;;;;;;;10.77;7.40;;;20.00;99.90;;;;;;5052816;28;20163;-81
2023/08/23 03:46:04;;;;;;;10.27;7.43;;;19.50;99.90;;;;;;5052477;28;20131;-81
2023/08/23 03:48:29;;;;;;;8.88;7.97;;;19.30;99.90;;;;;;5052824;28;20021;-81
2023/08/23 03:50:59;;;;;;;8.25;7.45;;;20.10;99.90;;;;;;5053027;28;20454;-81
2023/08/23 03:53:25;;;;;;;12.90;6.87;;;19.30;99.90;;;;;;5052560;28;20528;-81
2023/08/23 03:55:58;;;;;;;11.93;8.35;;;19.40;99.90;;;;;;5052547;28;20143;-81
2023/08/23 03:58:23;;;;;;;9.60;7.97;;;19.30;99.90;;;;;;5052312;28;20044;-81
2023/08/23 04:00:52;;;;;;;13.27;8.00;;;19.30;99.90;;;;;;5052499;28;20029;-81
2023/08/23 04:03:18;;;;;;;9.63;7.75;;;19.20;99.90;;;;;;5052740;28;20056;-81
2023/08/23 04:05:44;;;;;;;12.13;7.50;;;19.20;99.90;;;;;;5051805;28;20108;-81
2023/08/23 04:08:10;;;;;;;7.78;6.93;;;19.20;99.90;;;;;;5052808;28;20029;-81
2023/08/23 04:10:36;;;;;;;12.57;7.78;;;19.60;99.90;;;;;;5052426;28;20021;-82
2023/08/23 04:13:02;;;;;;;8.73;7.22;;;19.20;99.90;;;;;;5051805;28;20112;-82
2023/08/23 04:15:28;;;;;;;8.68;6.90;;;19.20;99.90;;;;;;5052871;28;20116;-81
2023/08/23 04:17:53;;;;;;;9.40;6.55;;;19.20;99.90;;;;;;5052397;28;20028;-81
2023/08/23 04:20:19;;;;;;;8.23;7.43;;;19.20;99.90;;;;;;5051988;28;20025;-82
2023/08/23 04:22:44;;;;;;;10.25;7.30;;;19.20;99.90;;;;;;5052291;28;20035;-81
2023/08/23 04:25:11;;;;;;;8.68;7.75;;;19.20;99.90;;;;;;5052404;28;20021;-82
2023/08/23 04:27:37;;;;;;;8.27;7.47;;;19.20;99.90;;;;;;5051365;28;20114;-81
2023/08/23 04:30:06;;;;;;;11.13;7.45;;;19.20;99.90;;;;;;5052558;28;20108;-82
2023/08/23 04:32:32;;;;;;;8.93;7.95;;;19.30;99.90;;;;;;5051930;28;20069;-81
2023/08/23 04:34:58;;;;;;;7.68;6.88;;;19.20;99.90;;;;;;5051601;28;20075;-82
2023/08/23 04:37:23;;;;;;;8.45;7.65;;;19.20;99.90;;;;;;5052225;28;20492;-81
2023/08/23 04:39:49;;;;;;;9.55;8.38;;;19.20;99.90;;;;;;5051925;28;20124;-81
2023/08/23 04:42:14;;;;;;;12.02;7.80;;;19.20;99.90;;;;;;5051246;28;20074;-81
2023/08/23 04:44:40;;;;;;;8.43;7.53;;;19.20;99.90;;;;;;5051954;28;20032;-82
2023/08/23 04:47:06;;;;;;;11.30;6.30;;;19.20;99.90;;;;;;5052053;28;20101;-81
2023/08/23 04:49:32;;;;;;;9.52;8.20;;;19.20;99.90;;;;;;5051471;28;20036;-82
2023/08/23 04:51:58;;;;;;;8.95;8.02;;;19.10;99.90;;;;;;5051905;28;20021;-82
2023/08/23 04:54:23;;;;;;;8.55;7.63;;;19.10;99.90;;;;;;5050533;28;20163;-82
2023/08/23 04:56:49;;;;;;;8.93;8.13;;;19.10;99.90;;;;;;5051806;28;20028;-81
2023/08/23 04:59:15;;;;;;;8.18;7.10;;;19.10;99.90;;;;;;5052742;28;20025;-80
2023/08/23 05:01:40;;;;;;;8.52;7.57;;;19.10;99.90;;;;;;5051043;28;20025;-80
2023/08/23 05:04:07;;;;;;;14.43;7.55;;;19.10;99.90;;;;;;5052008;28;20033;-81
2023/08/23 05:06:35;;;;;;;9.38;8.02;;;19.10;99.90;;;;;;5051585;28;20074;-80
2023/08/23 05:09:02;;;;;;;14.88;8.13;;;19.10;99.90;;;;;;5050950;28;20389;-80
2023/08/23 05:11:27;;;;;;;8.88;7.97;;;18.90;99.90;;;;;;5051771;28;20107;-80
2023/08/23 05:13:53;;;;;;;9.00;7.30;;;19.10;99.90;;;;;;5051439;28;20501;-80
2023/08/23 05:16:18;;;;;;;10.07;7.00;;;19.00;99.90;;;;;;5051382;28;20040;-80
2023/08/23 05:18:44;;;;;;;7.70;7.00;;;19.20;99.90;;;;;;5051736;28;20032;-80
2023/08/23 05:21:09;;;;;;;12.60;8.50;;;19.10;99.90;;;;;;5052125;28;20025;-80
2023/08/23 05:23:35;;;;;;;10.77;7.55;;;19.00;99.90;;;;;;5050597;28;20028;-80
2023/08/23 05:26:02;;;;;;;9.23;7.82;;;19.00;99.90;;;;;;5051416;28;20029;-80
2023/08/23 05:28:28;;;;;;;7.80;7.10;;;19.10;99.90;;;;;;5051877;28;20083;-82
2023/08/23 05:30:54;;;;;;;12.40;8.07;;;19.10;99.90;;;;;;5050789;28;20033;-81
2023/08/23 05:33:20;;;;;;;10.38;9.38;;;19.10;99.90;;;;;;5051541;28;20053;-81
2023/08/23 05:35:46;;;;;;;14.27;9.45;;;19.10;99.90;;;;;;5051179;28;20090;-81
2023/08/23 05:38:12;;;;;;;16.00;9.07;;;19.20;99.90;;;;;;5050655;28;20025;-81
2023/08/23 05:40:38;;;;;;;10.00;8.90;;;19.20;99.90;;;;;;5050961;28;20112;-81
2023/08/23 05:43:04;;;;;;;9.85;8.85;;;19.10;99.90;;;;;;5051570;28;20021;-81
2023/08/23 05:45:30;;;;;;;15.23;9.93;;;19.20;99.90;;;;;;5050486;28;20021;-81
2023/08/23 05:47:56;;;;;;;12.63;10.10;;;19.20;99.90;;;;;;5051175;28;20025;-82
2023/08/23 05:50:22;;;;;;;12.25;9.30;;;19.60;99.90;;;;;;5051383;28;20388;-81
2023/08/23 05:52:48;;;;;;;13.13;10.35;;;19.90;99.90;;;;;;5050309;28;20022;-81
2023/08/23 05:55:13;;;;;;;17.10;10.48;;;19.20;99.90;;;;;;5051006;28;20037;-81
2023/08/23 05:57:39;;;;;;;11.88;10.45;;;19.20;99.90;;;;;;5050645;28;20507;-81
2023/08/23 06:00:05;;;;;;;11.20;9.93;;;19.20;99.90;;;;;;5051294;28;20111;-81
2023/08/23 06:02:31;;;;;;;15.32;10.80;;;19.20;99.90;;;;;;5050750;28;20025;-81
2023/08/23 06:04:58;;;;;;;13.55;10.45;;;19.60;99.90;;;;;;5052852;28;20033;-80
2023/08/23 06:07:23;;;;;;;15.32;11.27;;;19.20;99.90;;;;;;5054963;28;20021;-81
2023/08/23 06:09:49;;;;;;;20.10;11.02;;;19.20;99.90;;;;;;5054505;28;20059;-81
2023/08/23 06:12:14;;;;;;;15.02;12.10;;;19.20;99.90;;;;;;5054350;28;20029;-81
2023/08/23 06:14:40;;;;;;;13.02;10.75;;;19.30;99.90;;;;;;5054445;28;20032;-81
2023/08/23 06:17:06;;;;;;;16.88;12.40;;;19.30;99.90;;;;;;5054732;28;20017;-81
2023/08/23 06:19:32;;;;;;;13.38;12.00;;;19.30;99.90;;;;;;5053666;28;20056;-81
2023/08/23 06:21:58;;;;;;;14.93;12.27;;;19.40;99.90;;;;;;5054472;28;20048;-81
2023/08/23 06:24:24;;;;;;;20.35;12.30;;;19.30;99.90;;;;;;5054471;28;20477;-81
2023/08/23 06:26:50;;;;;;;16.40;13.05;;;19.30;99.90;;;;;;5053593;28;20112;-81
2023/08/23 06:29:16;;;;;;;15.55;12.50;;;19.30;99.90;;;;;;5054594;28;20112;-81
2023/08/23 06:31:42;;;;;;;17.83;12.73;;;19.40;99.90;;;;;;5054263;28;20124;-81
2023/08/23 06:34:08;;;;;;;19.25;11.48;;;19.40;99.90;;;;;;5053997;28;20429;-81
2023/08/23 06:36:33;;;;;;;14.60;12.15;;;19.40;99.90;;;;;;5054180;28;20086;-81
2023/08/23 06:38:59;;;;;;;15.85;12.98;;;19.40;99.90;;;;;;5054155;28;20029;-81
2023/08/23 06:41:25;;;;;;;18.40;13.60;;;19.40;99.90;;;;;;5053914;28;20029;-81
2023/08/23 06:43:58;;;;;;;15.25;12.23;;;19.50;99.90;;;;;;5053809;28;20100;-81
2023/08/23 06:46:24;;;;;;;18.05;13.63;;;19.50;99.90;;;;;;5054533;28;20101;-81
2023/08/23 06:48:49;;;;;;;25.02;16.05;;;19.50;99.90;;;;;;5053206;28;20489;-81
2023/08/23 06:51:15;;;;;;;21.20;13.18;;;19.50;99.90;;;;;;5054243;28;20029;-81
2023/08/23 06:53:41;;;;;;;20.88;15.05;;;19.50;99.90;;;;;;5053345;28;20027;-82
2023/08/23 06:56:11;;;;;;;20.92;15.38;;;20.40;99.90;;;;;;5053067;28;20040;-81
2023/08/23 06:58:37;;;;;;;;;;;19.50;99.90;;;;;;5053990;28;20108;-81
2023/08/23 07:01:05;;;;;;;19.30;14.55;;;19.50;99.90;;;;;;5053358;28;19928;-81
2023/08/23 07:03:31;;;;;;;23.35;15.32;;;19.50;99.90;;;;;;5053554;28;20078;-81
2023/08/23 07:05:57;;;;;;;24.25;16.10;;;19.60;99.90;;;;;;5053794;28;20029;-81
2023/08/23 07:08:23;;;;;;;20.15;15.82;;;19.60;99.90;;;;;;5053433;28;20427;-81
2023/08/23 07:10:49;;;;;;;26.38;16.20;;;19.60;99.90;;;;;;5053516;28;20021;-81
2023/08/23 07:13:14;;;;;;;19.65;15.13;;;19.70;99.90;;;;;;5053800;28;20376;-81
2023/08/23 07:15:40;;;;;;;21.27;15.02;;;19.60;99.90;;;;;;5052337;28;20150;-81
2023/08/23 07:18:08;;;;;;;24.70;16.73;;;19.60;99.90;;;;;;5053855;28;20116;-81
2023/08/23 07:20:33;;;;;;;20.70;15.20;;;19.60;99.90;;;;;;5053834;28;20032;-81
2023/08/23 07:22:59;;;;;;;24.67;16.42;;;19.70;99.90;;;;;;5053483;28;20028;-81
2023/08/23 07:25:25;;;;;;;27.27;15.88;;;19.70;99.90;;;;;;5066474;28;20481;-81
2023/08/23 07:27:50;;;;;;;26.15;16.17;;;19.70;99.90;;;;;;5053406;28;20362;-81
2023/08/23 07:30:16;;;;;;;20.55;16.08;;;20.60;99.90;;;;;;5052837;28;20059;-81
2023/08/23 07:32:42;;;;;;;21.38;14.23;;;19.70;99.90;;;;;;5052939;28;20508;-81
2023/08/23 07:35:08;;;;;;;24.65;14.13;;;19.70;99.90;;;;;;5053221;28;20032;-81
2023/08/23 07:37:34;;;;;;;23.98;14.02;;;19.70;99.90;;;;;;5052408;28;20107;-81
2023/08/23 07:39:59;;;;;;;19.10;13.10;;;19.80;99.90;;;;;;5053311;28;20118;-81
2023/08/23 07:42:27;;;;;;;22.25;14.57;;;19.80;99.90;;;;;;5053027;28;20372;-81
2023/08/23 07:44:53;;;;;;;28.80;15.32;;;19.80;99.90;;;;;;5052257;28;20025;-81
2023/08/23 07:47:18;;;;;;;22.30;14.00;;;19.80;99.90;;;;;;5053139;28;20104;-81
2023/08/23 07:49:44;;;;;;;26.15;14.15;;;20.70;99.90;;;;;;5052300;28;20121;-81
2023/08/23 07:52:09;;;;;;;22.90;14.00;;;19.80;99.90;;;;;;5052660;28;20086;-81
2023/08/23 07:54:35;;;;;;;19.77;14.40;;;19.90;99.90;;;;;;5052535;28;20536;-81
2023/08/23 07:57:00;;;;;;;22.23;14.38;;;19.80;99.90;;;;;;5052859;28;20017;-81
2023/08/23 07:59:26;;;;;;;26.02;15.15;;;19.80;99.90;;;;;;5052116;28;20031;-81
2023/08/23 08:01:51;;;;;;;30.00;14.30;;;19.90;99.90;;;;;;5052514;28;20028;-81
2023/08/23 08:04:17;;;;;;;21.70;14.90;;;19.90;99.90;;;;;;5052010;28;20074;-81
2023/08/23 08:06:43;;;;;;;26.10;13.82;;;20.00;99.90;;;;;;5052503;28;20044;-81
2023/08/23 08:09:09;;;;;;;25.73;14.57;;;20.00;99.90;;;;;;5052544;28;20380;-81
2023/08/23 08:11:34;;;;;;;21.42;13.20;;;20.20;99.90;;;;;;5051948;28;20522;-81
2023/08/23 08:14:00;;;;;;;19.58;13.13;;;20.00;99.90;;;;;;5052516;28;20013;-81
2023/08/23 08:16:25;;;;;;;22.75;13.38;;;20.20;99.90;;;;;;5052535;28;20057;-81
2023/08/23 08:18:51;;;;;;;25.02;13.20;;;20.10;99.90;;;;;;5051579;28;20021;-81
2023/08/23 08:21:19;;;;;;;26.02;14.38;;;20.00;99.90;;;;;;5052937;28;20036;-81
2023/08/23 08:23:46;;;;;;;33.70;15.60;;;20.10;99.90;;;;;;5052064;28;20031;-81
2023/08/23 08:26:13;;;;;;;23.70;14.85;;;20.30;99.90;;;;;;5051686;28;20106;-81
2023/08/23 08:28:42;;;;;;;14.77;12.70;;;20.20;99.90;;;;;;5051279;28;20053;-81
2023/08/23 08:31:08;;;;;;;22.75;13.60;;;20.30;99.90;;;;;;5052292;28;20104;-81
2023/08/23 08:33:34;;;;;;;20.40;12.93;;;20.40;99.90;;;;;;5051066;28;20049;-81
2023/08/23 08:36:00;;;;;;;26.25;14.38;;;20.40;99.90;;;;;;5051837;28;20039;-81
2023/08/23 08:38:26;;;;;;;19.77;13.20;;;21.00;99.90;;;;;;5052412;28;20036;-81
2023/08/23 08:40:51;;;;;;;19.90;13.23;;;20.40;99.90;;;;;;5051070;28;20469;-81
2023/08/23 08:43:18;;;;;;;23.63;13.50;;;20.40;99.90;;;;;;5052056;28;20033;-81
2023/08/23 08:45:44;;;;;;;22.10;13.50;;;20.90;99.90;;;;;;5051615;28;20017;-81
2023/08/23 08:48:10;;;;;;;21.25;14.70;;;20.50;99.90;;;;;;5051205;28;20112;-80
2023/08/23 08:50:37;;;;;;;29.00;14.02;;;20.60;99.90;;;;;;5051658;28;20109;-81
2023/08/23 08:53:09;;;;;;;17.33;13.70;;;20.60;99.90;;;;;;5052037;28;20100;-81
2023/08/23 08:55:35;;;;;;;20.63;14.55;;;20.70;99.90;;;;;;5051171;28;20067;-81
2023/08/23 08:58:02;;;;;;;21.25;12.60;;;20.70;99.90;;;;;;5051924;28;20029;-82
2023/08/23 09:00:28;;;;;;;20.80;13.32;;;20.70;99.90;;;;;;5052131;28;20071;-81
2023/08/23 09:02:55;;;;;;;25.38;14.65;;;20.70;99.90;;;;;;5052048;28;20024;-81
2023/08/23 09:05:22;;;;;;;13.98;11.75;;;20.80;99.90;;;;;;5051836;28;20061;-81
2023/08/23 09:07:49;;;;;;;24.15;13.38;;;20.80;99.90;;;;;;5051013;28;20021;-81
2023/08/23 09:10:15;;;;;;;15.38;11.77;;;20.80;99.90;;;;;;5058832;28;20453;-81
2023/08/23 09:12:41;;;;;;;17.17;11.30;;;20.70;99.90;;;;;;5051546;28;20029;-81
2023/08/23 09:15:07;;;;;;;16.30;12.60;;;20.90;99.90;;;;;;5051111;28;20107;-81
2023/08/23 09:17:36;;;;;;;23.55;13.00;;;20.90;99.90;;;;;;5051591;28;20025;-81
2023/08/23 09:20:06;;;;;;;23.25;12.50;;;20.90;99.90;;;;;;5051839;28;20024;-81
2023/08/23 09:22:33;;;;;;;15.75;13.95;;;20.90;99.90;;;;;;5050524;28;20021;-81
2023/08/23 09:25:02;;;;;;;16.73;13.50;;;20.90;99.90;;;;;;5051547;28;20098;-81
2023/08/23 09:27:28;;;;;;;18.25;16.00;;;21.00;99.90;;;;;;5051699;28;20044;-81
2023/08/23 09:29:54;;;;;;;25.42;15.35;;;21.00;99.90;;;;;;5050711;28;20021;-81
2023/08/23 09:32:20;;;;;;;19.65;15.75;;;21.10;99.90;;;;;;5051558;28;20055;-81
2023/08/23 09:34:46;;;;;;;25.50;18.05;;;21.40;99.90;;;;;;5051340;28;20041;-81
2023/08/23 09:37:12;;;;;;;18.05;16.17;;;21.20;99.90;;;;;;5050818;28;20022;-81
2023/08/23 09:39:38;;;;;;;21.67;15.85;;;21.20;99.90;;;;;;5052799;28;20098;-81
2023/08/23 09:42:13;;;;;;;16.05;12.80;;;21.20;99.90;;;;;;5055404;28;20043;-81
2023/08/23 09:44:43;;;;;;;13.95;12.20;;;21.20;99.90;;;;;;5054567;28;20476;-81
2023/08/23 09:47:17;;;;;;;14.80;11.20;;;21.30;99.90;;;;;;5055322;28;20391;-81
2023/08/23 09:49:44;;;;;;;19.80;12.73;;;21.30;99.90;;;;;;5055261;28;20499;-81
2023/08/23 09:52:11;;;;;;;14.65;10.57;;;21.30;99.90;;;;;;5055398;28;20212;-81
2023/08/23 09:54:52;;;;;;;16.05;9.77;;;21.40;99.90;;;;;;5055089;28;20037;-81
2023/08/23 09:57:19;;;;;;;15.65;8.73;;;21.40;99.90;;;;;;5054476;28;20487;-81
2023/08/23 09:59:45;;;;;;;15.02;9.40;;;21.40;99.90;;;;;;5054973;28;20039;-81
2023/08/23 10:02:11;;;;;;;14.55;8.05;;;21.40;99.90;;;;;;5055218;28;20092;-81
2023/08/23 10:04:42;;;;;;;9.18;6.30;;;21.50;99.90;;;;;;5054036;28;20112;-81
2023/08/23 10:07:08;;;;;;;7.13;4.65;;;21.50;99.90;;;;;;5055458;28;20031;-81
2023/08/23 10:09:35;;;;;;;10.25;5.85;;;21.50;99.90;;;;;;5054737;28;20104;-80
2023/08/23 10:12:03;;;;;;;12.93;7.00;;;21.50;99.90;;;;;;5054577;28;20059;-80
2023/08/23 10:14:31;;;;;;;15.70;6.63;;;21.50;99.90;;;;;;5054862;28;20107;-81
2023/08/23 10:16:57;;;;;;;9.60;5.65;;;21.50;99.90;;;;;;5054880;28;20033;-80
2023/08/23 10:19:23;;;;;;;9.85;5.03;;;21.50;99.90;;;;;;5054054;28;20027;-82
2023/08/23 10:21:50;;;;;;;11.60;5.68;;;21.50;99.90;;;;;;5054006;28;20033;-81
2023/08/23 10:24:15;;;;;;;7.30;4.85;;;22.40;99.90;;;;;;5054735;28;20025;-81
2023/08/23 10:26:51;;;;;;;12.15;7.15;;;21.60;99.90;;;;;;5053562;28;20044;-81
2023/08/23 10:29:31;;;;;;;11.02;6.45;;;21.60;99.90;;;;;;5054677;28;20178;-82
2023/08/23 10:31:57;;;;;;;6.88;5.10;;;21.60;99.90;;;;;;5053815;28;20045;-82
2023/08/23 10:34:27;;;;;;;8.00;4.40;;;21.70;99.90;;;;;;5054204;28;20021;-82
2023/08/23 10:36:54;;;;;;;5.93;4.30;;;21.70;99.90;;;;;;5054732;28;20036;-82
2023/08/23 10:39:27;;;;;;;7.28;4.50;;;21.70;99.90;;;;;;5053665;28;20400;-81
2023/08/23 10:41:56;;;;;;;8.55;4.22;;;21.80;99.90;;;;;;5054478;28;20053;-82
2023/08/23 10:44:22;;;;;;;9.07;5.40;;;21.90;99.90;;;;;;5054619;28;20021;-82
2023/08/23 10:46:51;;;;;;;10.32;4.47;;;22.00;99.90;;;;;;5053605;28;20028;-82
2023/08/23 10:49:20;;;;;;;13.10;4.95;;;21.90;99.90;;;;;;5054640;28;20025;-81
2023/08/23 10:51:46;;;;;;;4.45;2.88;;;22.00;99.90;;;;;;5053293;28;20037;-81
2023/08/23 10:54:13;;;;;;;7.65;2.83;;;22.00;99.90;;;;;;5061934;28;20029;-81
2023/08/23 10:56:39;;;;;;;6.65;4.18;;;22.10;99.90;;;;;;5059049;28;20033;-82
2023/08/23 10:59:08;;;;;;;5.68;4.00;;;22.10;99.90;;;;;;5054053;28;20029;-82
2023/08/23 11:01:34;;;;;;;7.95;3.10;;;22.00;99.90;;;;;;5053167;28;20025;-81
2023/08/23 11:04:03;;;;;;;7.55;4.57;;;22.10;99.90;;;;;;5054366;28;20146;-81
2023/08/23 11:06:30;;;;;;;7.97;4.00;;;22.10;99.90;;;;;;5054360;28;20025;-81
2023/08/23 11:08:56;;;;;;;6.32;4.25;;;22.10;99.90;;;;;;5053693;28;20100;-81
2023/08/23 11:11:26;;;;;;;8.30;4.75;;;22.10;99.90;;;;;;5054190;28;20480;-81
2023/08/23 11:13:51;;;;;;;6.97;3.73;;;22.60;99.90;;;;;;5053439;28;20021;-80
2023/08/23 11:16:17;;;;;;;14.02;5.15;;;22.20;99.90;;;;;;5053123;28;20033;-80
2023/08/23 11:18:43;;;;;;;6.57;3.60;;;22.30;99.90;;;;;;5053637;28;20036;-80
2023/08/23 11:21:09;;;;;;;12.20;4.28;;;22.40;99.90;;;;;;5053425;28;20029;-81
2023/08/23 11:23:37;;;;;;;7.20;3.30;;;22.60;99.90;;;;;;5053207;28;20035;-81
2023/08/23 11:26:03;;;;;;;5.55;3.28;;;22.70;99.90;;;;;;5053701;28;20036;-81
2023/08/23 11:28:30;;;;;;;8.10;3.60;;;22.80;99.90;;;;;;5052549;28;20052;-81
2023/08/23 11:30:58;;;;;;;4.65;3.10;;;22.80;99.90;;;;;;5053367;28;20033;-82
2023/08/23 11:33:24;;;;;;;6.75;3.63;;;22.70;99.90;;;;;;5053277;28;20068;-81
2023/08/23 11:35:50;;;;;;;10.95;4.35;;;22.70;99.90;;;;;;5052445;28;20033;-81
2023/08/23 11:38:16;;;;;;;5.38;4.00;;;22.70;99.90;;;;;;5053393;28;20075;-81
2023/08/23 11:40:44;;;;;;;6.63;3.22;;;22.70;99.90;;;;;;5052857;28;20021;-81
2023/08/23 11:43:14;;;;;;;6.70;3.30;;;22.80;99.90;;;;;;5052418;28;20058;-81
2023/08/23 11:45:41;;;;;;;6.13;3.08;;;22.90;99.90;;;;;;5053820;28;20021;-81
2023/08/23 11:48:10;;;;;;;4.97;3.70;;;22.90;99.90;;;;;;5053090;28;20036;-81
2023/08/23 11:50:37;;;;;;;9.98;4.68;;;22.90;99.90;;;;;;5052342;28;20032;-81
2023/08/23 11:53:04;;;;;;;10.00;4.03;;;22.80;99.90;;;;;;5053411;28;20025;-81
2023/08/23 11:55:32;;;;;;;4.47;3.13;;;22.80;99.90;;;;;;5052770;28;20068;-81
2023/08/23 11:57:58;;;;;;;7.63;3.95;;;22.80;99.90;;;;;;5052024;28;20140;-81
2023/08/23 12:00:24;;;;;;;7.55;3.40;;;23.00;99.90;;;;;;5053215;28;20051;-80
2023/08/23 12:02:49;;;;;;;6.47;3.85;;;22.80;99.90;;;;;;5052431;28;20025;-81
2023/08/23 12:05:16;;;;;;;4.35;3.40;;;22.90;99.90;;;;;;5055338;28;20084;-80
2023/08/23 12:07:42;;;;;;;4.07;3.45;;;22.80;99.90;;;;;;5062712;28;20096;-81
2023/08/23 12:10:11;;;;;;;7.43;3.78;;;22.90;99.90;;;;;;5052837;28;20477;-81
2023/08/23 12:12:37;;;;;;;7.22;3.70;;;22.90;99.90;;;;;;5051721;28;20366;-81
2023/08/23 12:15:04;;;;;;;8.02;4.53;;;23.00;99.90;;;;;;5052623;28;20036;-81
2023/08/23 12:17:30;;;;;;;4.55;4.18;;;23.00;99.90;;;;;;5051774;28;20053;-81
2023/08/23 12:19:55;;;;;;;7.18;4.15;;;23.10;99.90;;;;;;5052488;28;20068;-81
2023/08/23 12:22:21;;;;;;;5.53;4.05;;;23.10;99.90;;;;;;5052572;28;20046;-81
2023/08/23 12:24:47;;;;;;;3.72;3.42;;;23.40;99.90;;;;;;5051633;28;20079;-81
2023/08/23 12:27:12;;;;;;;9.48;3.92;;;23.40;99.90;;;;;;5052399;28;20021;-81
2023/08/23 12:29:38;;;;;;;7.25;4.22;;;23.40;99.90;;;;;;5052167;28;20017;-81
2023/08/23 12:32:08;;;;;;;5.63;3.33;;;23.40;99.90;;;;;;5051910;28;20497;-81
2023/08/23 12:34:34;;;;;;;7.90;3.95;;;23.50;99.90;;;;;;5052149;28;20064;-81